sensor_id;sensor_type;location;lat;lon;timestamp;P1;durP1;ratioP1;P2;durP2;ratioP2
39016;SDS011;24784;45.582;5.276;2023-03-23T00:01:17;6.22;;;3.67;;
39016;SDS011;24784;45.582;5.276;2023-03-23T00:03:48;8.57;;;3.53;;
39016;SDS011;24784;45.582;5.276;2023-03-23T00:06:15;6.55;;;3.13;;
39016;SDS011;24784;45.582;5.276;2023-03-23T00:08:49;6.03;;;3.13;;
39016;SDS011;24784;45.582;5.276;2023-03-23T00:11:22;6.00;;;3.40;;
39016;SDS011;24784;45.582;5.276;2023-03-23T00:13:51;4.63;;;2.10;;
39016;SDS011;24784;45.582;5.276;2023-03-23T00:16:19;5.60;;;3.00;;
39016;SDS011;24784;45.582;5.276;2023-03-23T00:18:54;8.68;;;2.90;;
39016;SDS011;24784;45.582;5.276;2023-03-23T00:21:24;8.35;;;2.72;;
39016;SDS011;24784;45.582;5.276;2023-03-23T00:24:06;6.78;;;3.30;;
39016;SDS011;24784;45.582;5.276;2023-03-23T00:26:33;7.47;;;3.28;;
39016;SDS011;24784;45.582;5.276;2023-03-23T00:29:16;5.30;;;2.58;;
39016;SDS011;24784;45.582;5.276;2023-03-23T00:31:46;3.00;;;2.28;;
39016;SDS011;24784;45.582;5.276;2023-03-23T00:34:16;2.30;;;1.50;;
39016;SDS011;24784;45.582;5.276;2023-03-23T00:36:47;5.45;;;2.22;;
39016;SDS011;24784;45.582;5.276;2023-03-23T00:39:15;6.05;;;2.15;;
39016;SDS011;24784;45.582;5.276;2023-03-23T00:41:43;2.72;;;1.70;;
39016;SDS011;24784;45.582;5.276;2023-03-23T00:44:09;5.22;;;1.60;;
39016;SDS011;24784;45.582;5.276;2023-03-23T00:46:41;3.65;;;1.70;;
39016;SDS011;24784;45.582;5.276;2023-03-23T00:49:14;6.28;;;1.80;;
39016;SDS011;24784;45.582;5.276;2023-03-23T00:51:44;3.25;;;1.70;;
39016;SDS011;24784;45.582;5.276;2023-03-23T00:54:10;3.42;;;1.63;;
39016;SDS011;24784;45.582;5.276;2023-03-23T00:56:38;3.00;;;1.52;;
39016;SDS011;24784;45.582;5.276;2023-03-23T00:59:04;3.25;;;1.70;;
39016;SDS011;24784;45.582;5.276;2023-03-23T01:01:31;3.22;;;1.65;;
39016;SDS011;24784;45.582;5.276;2023-03-23T01:04:00;3.42;;;1.95;;
39016;SDS011;24784;45.582;5.276;2023-03-23T01:06:29;5.40;;;2.00;;
39016;SDS011;24784;45.582;5.276;2023-03-23T01:08:57;2.50;;;1.80;;
39016;SDS011;24784;45.582;5.276;2023-03-23T01:11:25;3.88;;;1.77;;
39016;SDS011;24784;45.582;5.276;2023-03-23T01:13:51;3.53;;;1.60;;
39016;SDS011;24784;45.582;5.276;2023-03-23T01:16:17;5.90;;;1.80;;
39016;SDS011;24784;45.582;5.276;2023-03-23T01:18:43;3.35;;;1.73;;
39016;SDS011;24784;45.582;5.276;2023-03-23T01:21:10;2.13;;;1.60;;
39016;SDS011;24784;45.582;5.276;2023-03-23T01:23:38;4.07;;;2.15;;
39016;SDS011;24784;45.582;5.276;2023-03-23T01:26:09;3.42;;;1.55;;
39016;SDS011;24784;45.582;5.276;2023-03-23T01:28:36;2.88;;;1.73;;
39016;SDS011;24784;45.582;5.276;2023-03-23T01:31:10;3.25;;;1.90;;
39016;SDS011;24784;45.582;5.276;2023-03-23T01:33:38;3.42;;;1.83;;
39016;SDS011;24784;45.582;5.276;2023-03-23T01:36:06;2.55;;;1.73;;
39016;SDS011;24784;45.582;5.276;2023-03-23T01:38:35;4.13;;;2.10;;
39016;SDS011;24784;45.582;5.276;2023-03-23T01:41:01;2.30;;;1.70;;
39016;SDS011;24784;45.582;5.276;2023-03-23T01:43:28;2.65;;;1.90;;
39016;SDS011;24784;45.582;5.276;2023-03-23T01:45:54;6.80;;;2.22;;
39016;SDS011;24784;45.582;5.276;2023-03-23T01:53:31;4.18;;;2.08;;
39016;SDS011;24784;45.582;5.276;2023-03-23T01:56:10;2.92;;;1.80;;
39016;SDS011;24784;45.582;5.276;2023-03-23T01:58:39;10.77;;;1.83;;
39016;SDS011;24784;45.582;5.276;2023-03-23T02:01:10;3.50;;;1.98;;
39016;SDS011;24784;45.582;5.276;2023-03-23T02:03:42;4.18;;;1.80;;
39016;SDS011;24784;45.582;5.276;2023-03-23T02:06:10;4.07;;;1.70;;
39016;SDS011;24784;45.582;5.276;2023-03-23T02:08:37;3.08;;;1.67;;
39016;SDS011;24784;45.582;5.276;2023-03-23T02:11:18;4.88;;;2.10;;
39016;SDS011;24784;45.582;5.276;2023-03-23T02:13:46;4.57;;;1.63;;
39016;SDS011;24784;45.582;5.276;2023-03-23T02:27:11;2.35;;;1.73;;
39016;SDS011;24784;45.582;5.276;2023-03-23T02:35:02;3.70;;;2.15;;
39016;SDS011;24784;45.582;5.276;2023-03-23T02:37:46;5.38;;;2.03;;
39016;SDS011;24784;45.582;5.276;2023-03-23T02:40:32;3.85;;;1.92;;
39016;SDS011;24784;45.582;5.276;2023-03-23T02:43:03;5.57;;;2.00;;
39016;SDS011;24784;45.582;5.276;2023-03-23T02:45:34;3.20;;;1.80;;
39016;SDS011;24784;45.582;5.276;2023-03-23T02:48:02;9.57;;;2.35;;
39016;SDS011;24784;45.582;5.276;2023-03-23T02:50:30;4.30;;;2.00;;
39016;SDS011;24784;45.582;5.276;2023-03-23T02:52:58;2.60;;;2.28;;
39016;SDS011;24784;45.582;5.276;2023-03-23T02:55:26;4.20;;;2.78;;
39016;SDS011;24784;45.582;5.276;2023-03-23T02:57:55;3.92;;;1.90;;
39016;SDS011;24784;45.582;5.276;2023-03-23T03:00:22;4.65;;;2.70;;
39016;SDS011;24784;45.582;5.276;2023-03-23T03:02:52;2.90;;;2.08;;
39016;SDS011;24784;45.582;5.276;2023-03-23T03:08:26;5.63;;;2.17;;
39016;SDS011;24784;45.582;5.276;2023-03-23T03:11:07;3.90;;;1.95;;
39016;SDS011;24784;45.582;5.276;2023-03-23T03:16:31;2.50;;;2.13;;
39016;SDS011;24784;45.582;5.276;2023-03-23T03:19:10;5.43;;;2.00;;
39016;SDS011;24784;45.582;5.276;2023-03-23T03:21:41;4.63;;;2.50;;
39016;SDS011;24784;45.582;5.276;2023-03-23T03:24:09;2.95;;;1.98;;
39016;SDS011;24784;45.582;5.276;2023-03-23T03:26:40;4.20;;;2.30;;
39016;SDS011;24784;45.582;5.276;2023-03-23T03:29:20;4.13;;;2.20;;
39016;SDS011;24784;45.582;5.276;2023-03-23T03:31:48;7.15;;;2.42;;
39016;SDS011;24784;45.582;5.276;2023-03-23T03:34:16;4.93;;;2.65;;
39016;SDS011;24784;45.582;5.276;2023-03-23T03:36:45;6.32;;;2.40;;
39016;SDS011;24784;45.582;5.276;2023-03-23T03:39:13;3.95;;;2.47;;
39016;SDS011;24784;45.582;5.276;2023-03-23T03:41:42;3.75;;;2.20;;
39016;SDS011;24784;45.582;5.276;2023-03-23T03:44:08;3.83;;;2.28;;
39016;SDS011;24784;45.582;5.276;2023-03-23T03:46:35;3.10;;;2.42;;
39016;SDS011;24784;45.582;5.276;2023-03-23T03:49:02;4.78;;;2.45;;
39016;SDS011;24784;45.582;5.276;2023-03-23T03:51:31;4.45;;;2.35;;
39016;SDS011;24784;45.582;5.276;2023-03-23T03:53:57;4.05;;;2.72;;
39016;SDS011;24784;45.582;5.276;2023-03-23T03:56:23;4.18;;;2.33;;
39016;SDS011;24784;45.582;5.276;2023-03-23T03:58:51;4.80;;;2.95;;
39016;SDS011;24784;45.582;5.276;2023-03-23T04:01:18;5.20;;;2.47;;
39016;SDS011;24784;45.582;5.276;2023-03-23T04:03:49;4.68;;;2.42;;
39016;SDS011;24784;45.582;5.276;2023-03-23T04:06:16;2.78;;;2.08;;
39016;SDS011;24784;45.582;5.276;2023-03-23T04:08:42;4.25;;;2.67;;
39016;SDS011;24784;45.582;5.276;2023-03-23T04:11:10;2.50;;;1.95;;
39016;SDS011;24784;45.582;5.276;2023-03-23T04:13:39;4.22;;;2.42;;
39016;SDS011;24784;45.582;5.276;2023-03-23T04:16:05;6.35;;;2.53;;
39016;SDS011;24784;45.582;5.276;2023-03-23T04:18:32;4.60;;;2.47;;
39016;SDS011;24784;45.582;5.276;2023-03-23T04:20:59;6.30;;;2.30;;
39016;SDS011;24784;45.582;5.276;2023-03-23T04:23:27;3.40;;;2.20;;
39016;SDS011;24784;45.582;5.276;2023-03-23T04:25:56;3.70;;;2.58;;
39016;SDS011;24784;45.582;5.276;2023-03-23T04:28:23;3.28;;;2.22;;
39016;SDS011;24784;45.582;5.276;2023-03-23T04:30:51;5.00;;;1.92;;
39016;SDS011;24784;45.582;5.276;2023-03-23T04:33:21;6.53;;;2.33;;
39016;SDS011;24784;45.582;5.276;2023-03-23T04:35:50;6.75;;;2.42;;
39016;SDS011;24784;45.582;5.276;2023-03-23T04:38:21;5.20;;;2.00;;
39016;SDS011;24784;45.582;5.276;2023-03-23T04:40:50;5.53;;;2.65;;
39016;SDS011;24784;45.582;5.276;2023-03-23T04:43:22;4.25;;;2.10;;
39016;SDS011;24784;45.582;5.276;2023-03-23T04:45:53;5.00;;;2.47;;
39016;SDS011;24784;45.582;5.276;2023-03-23T04:48:26;3.78;;;2.33;;
39016;SDS011;24784;45.582;5.276;2023-03-23T04:50:54;6.72;;;2.47;;
39016;SDS011;24784;45.582;5.276;2023-03-23T04:53:21;3.88;;;2.20;;
39016;SDS011;24784;45.582;5.276;2023-03-23T04:55:47;4.55;;;2.58;;
39016;SDS011;24784;45.582;5.276;2023-03-23T04:58:14;4.22;;;2.47;;
39016;SDS011;24784;45.582;5.276;2023-03-23T05:00:41;3.80;;;2.25;;
39016;SDS011;24784;45.582;5.276;2023-03-23T05:03:09;9.85;;;2.70;;
39016;SDS011;24784;45.582;5.276;2023-03-23T05:05:35;5.13;;;2.53;;
39016;SDS011;24784;45.582;5.276;2023-03-23T05:08:01;4.88;;;2.10;;
39016;SDS011;24784;45.582;5.276;2023-03-23T05:10:27;4.70;;;2.50;;
39016;SDS011;24784;45.582;5.276;2023-03-23T05:12:53;5.53;;;2.10;;
39016;SDS011;24784;45.582;5.276;2023-03-23T05:15:20;4.70;;;2.33;;
39016;SDS011;24784;45.582;5.276;2023-03-23T05:17:46;5.00;;;2.38;;
39016;SDS011;24784;45.582;5.276;2023-03-23T05:20:14;3.72;;;2.63;;
39016;SDS011;24784;45.582;5.276;2023-03-23T05:22:44;4.10;;;2.40;;
39016;SDS011;24784;45.582;5.276;2023-03-23T05:25:12;7.78;;;2.72;;
39016;SDS011;24784;45.582;5.276;2023-03-23T05:27:39;2.85;;;2.45;;
39016;SDS011;24784;45.582;5.276;2023-03-23T05:30:08;7.85;;;3.00;;
39016;SDS011;24784;45.582;5.276;2023-03-23T05:32:35;5.45;;;2.65;;
39016;SDS011;24784;45.582;5.276;2023-03-23T05:35:02;3.33;;;2.90;;
39016;SDS011;24784;45.582;5.276;2023-03-23T05:37:29;5.70;;;2.92;;
39016;SDS011;24784;45.582;5.276;2023-03-23T05:39:59;4.43;;;2.67;;
39016;SDS011;24784;45.582;5.276;2023-03-23T05:42:30;4.05;;;2.60;;
39016;SDS011;24784;45.582;5.276;2023-03-23T05:44:58;4.80;;;2.60;;
39016;SDS011;24784;45.582;5.276;2023-03-23T05:47:24;3.90;;;2.72;;
39016;SDS011;24784;45.582;5.276;2023-03-23T05:49:50;6.68;;;2.90;;
39016;SDS011;24784;45.582;5.276;2023-03-23T05:52:19;4.30;;;3.05;;
39016;SDS011;24784;45.582;5.276;2023-03-23T05:54:45;4.78;;;2.92;;
39016;SDS011;24784;45.582;5.276;2023-03-23T05:57:11;5.65;;;3.08;;
39016;SDS011;24784;45.582;5.276;2023-03-23T05:59:37;6.70;;;2.85;;
39016;SDS011;24784;45.582;5.276;2023-03-23T06:02:03;5.72;;;2.63;;
39016;SDS011;24784;45.582;5.276;2023-03-23T06:04:30;6.57;;;3.10;;
39016;SDS011;24784;45.582;5.276;2023-03-23T06:06:59;6.97;;;4.18;;
39016;SDS011;24784;45.582;5.276;2023-03-23T06:09:28;6.55;;;2.90;;
39016;SDS011;24784;45.582;5.276;2023-03-23T06:11:54;5.28;;;3.17;;
39016;SDS011;24784;45.582;5.276;2023-03-23T06:14:20;5.65;;;2.60;;
39016;SDS011;24784;45.582;5.276;2023-03-23T06:16:46;3.20;;;2.70;;
39016;SDS011;24784;45.582;5.276;2023-03-23T06:19:13;5.57;;;3.20;;
39016;SDS011;24784;45.582;5.276;2023-03-23T06:21:41;7.03;;;3.55;;
39016;SDS011;24784;45.582;5.276;2023-03-23T06:24:07;5.60;;;3.38;;
39016;SDS011;24784;45.582;5.276;2023-03-23T06:26:35;6.72;;;4.15;;
39016;SDS011;24784;45.582;5.276;2023-03-23T06:29:03;6.35;;;3.75;;
39016;SDS011;24784;45.582;5.276;2023-03-23T06:31:46;6.75;;;3.72;;
39016;SDS011;24784;45.582;5.276;2023-03-23T06:34:14;5.90;;;3.15;;
39016;SDS011;24784;45.582;5.276;2023-03-23T06:36:40;4.18;;;2.85;;
39016;SDS011;24784;45.582;5.276;2023-03-23T06:39:08;4.80;;;3.00;;
39016;SDS011;24784;45.582;5.276;2023-03-23T06:41:34;6.68;;;3.65;;
39016;SDS011;24784;45.582;5.276;2023-03-23T06:44:00;7.00;;;4.22;;
39016;SDS011;24784;45.582;5.276;2023-03-23T06:46:26;7.65;;;4.28;;
39016;SDS011;24784;45.582;5.276;2023-03-23T06:48:54;23.23;;;9.05;;
39016;SDS011;24784;45.582;5.276;2023-03-23T06:51:20;9.50;;;5.50;;
39016;SDS011;24784;45.582;5.276;2023-03-23T06:53:46;10.45;;;5.38;;
39016;SDS011;24784;45.582;5.276;2023-03-23T06:56:12;10.75;;;5.45;;
39016;SDS011;24784;45.582;5.276;2023-03-23T06:58:39;8.63;;;5.15;;
39016;SDS011;24784;45.582;5.276;2023-03-23T07:01:06;8.82;;;4.68;;
39016;SDS011;24784;45.582;5.276;2023-03-23T07:03:33;11.45;;;6.20;;
39016;SDS011;24784;45.582;5.276;2023-03-23T07:05:59;6.95;;;4.45;;
39016;SDS011;24784;45.582;5.276;2023-03-23T07:08:25;6.72;;;3.80;;
39016;SDS011;24784;45.582;5.276;2023-03-23T07:10:54;7.15;;;4.38;;
39016;SDS011;24784;45.582;5.276;2023-03-23T07:13:22;9.50;;;4.53;;
39016;SDS011;24784;45.582;5.276;2023-03-23T07:15:48;10.85;;;4.45;;
39016;SDS011;24784;45.582;5.276;2023-03-23T07:18:14;4.78;;;3.63;;
39016;SDS011;24784;45.582;5.276;2023-03-23T07:20:40;7.32;;;4.35;;
39016;SDS011;24784;45.582;5.276;2023-03-23T07:23:08;8.82;;;4.32;;
39016;SDS011;24784;45.582;5.276;2023-03-23T07:25:34;13.10;;;5.03;;
39016;SDS011;24784;45.582;5.276;2023-03-23T07:28:00;11.57;;;5.40;;
39016;SDS011;24784;45.582;5.276;2023-03-23T07:30:28;7.70;;;4.97;;
39016;SDS011;24784;45.582;5.276;2023-03-23T07:32:57;11.20;;;4.15;;
39016;SDS011;24784;45.582;5.276;2023-03-23T07:35:23;8.48;;;4.18;;
39016;SDS011;24784;45.582;5.276;2023-03-23T07:37:50;5.72;;;4.28;;
39016;SDS011;24784;45.582;5.276;2023-03-23T07:40:17;5.50;;;3.95;;
39016;SDS011;24784;45.582;5.276;2023-03-23T07:42:46;7.60;;;5.20;;
39016;SDS011;24784;45.582;5.276;2023-03-23T07:45:17;9.95;;;4.70;;
39016;SDS011;24784;45.582;5.276;2023-03-23T07:47:43;9.75;;;3.97;;
39016;SDS011;24784;45.582;5.276;2023-03-23T07:50:09;7.32;;;4.50;;
39016;SDS011;24784;45.582;5.276;2023-03-23T07:52:36;10.38;;;5.95;;
39016;SDS011;24784;45.582;5.276;2023-03-23T07:55:02;8.45;;;4.97;;
39016;SDS011;24784;45.582;5.276;2023-03-23T07:57:30;8.48;;;5.43;;
39016;SDS011;24784;45.582;5.276;2023-03-23T07:59:57;7.15;;;4.97;;
39016;SDS011;24784;45.582;5.276;2023-03-23T08:02:24;6.93;;;4.18;;
39016;SDS011;24784;45.582;5.276;2023-03-23T08:04:51;13.82;;;5.30;;
39016;SDS011;24784;45.582;5.276;2023-03-23T08:07:18;7.50;;;4.38;;
39016;SDS011;24784;45.582;5.276;2023-03-23T08:09:45;6.63;;;4.07;;
39016;SDS011;24784;45.582;5.276;2023-03-23T08:12:12;7.20;;;4.13;;
39016;SDS011;24784;45.582;5.276;2023-03-23T08:14:38;6.00;;;4.03;;
39016;SDS011;24784;45.582;5.276;2023-03-23T08:17:06;6.97;;;4.25;;
39016;SDS011;24784;45.582;5.276;2023-03-23T08:19:34;7.68;;;4.20;;
39016;SDS011;24784;45.582;5.276;2023-03-23T08:22:02;6.75;;;4.70;;
39016;SDS011;24784;45.582;5.276;2023-03-23T08:24:29;10.82;;;5.00;;
39016;SDS011;24784;45.582;5.276;2023-03-23T08:26:57;9.80;;;4.47;;
39016;SDS011;24784;45.582;5.276;2023-03-23T08:29:23;11.75;;;6.43;;
39016;SDS011;24784;45.582;5.276;2023-03-23T08:31:49;9.95;;;4.32;;
39016;SDS011;24784;45.582;5.276;2023-03-23T08:34:15;10.98;;;5.07;;
39016;SDS011;24784;45.582;5.276;2023-03-23T08:36:42;5.50;;;4.10;;
39016;SDS011;24784;45.582;5.276;2023-03-23T08:39:09;12.15;;;4.90;;
39016;SDS011;24784;45.582;5.276;2023-03-23T08:41:35;9.68;;;4.15;;
39016;SDS011;24784;45.582;5.276;2023-03-23T08:44:02;10.93;;;4.20;;
39016;SDS011;24784;45.582;5.276;2023-03-23T08:46:28;6.25;;;3.80;;
39016;SDS011;24784;45.582;5.276;2023-03-23T08:48:54;5.35;;;4.05;;
39016;SDS011;24784;45.582;5.276;2023-03-23T08:51:20;8.45;;;4.82;;
39016;SDS011;24784;45.582;5.276;2023-03-23T08:53:46;8.38;;;4.60;;
39016;SDS011;24784;45.582;5.276;2023-03-23T08:56:12;6.38;;;4.13;;
39016;SDS011;24784;45.582;5.276;2023-03-23T08:58:39;6.03;;;4.38;;
39016;SDS011;24784;45.582;5.276;2023-03-23T09:01:05;8.75;;;5.13;;
39016;SDS011;24784;45.582;5.276;2023-03-23T09:03:33;9.85;;;6.15;;
39016;SDS011;24784;45.582;5.276;2023-03-23T09:06:03;12.30;;;6.68;;
39016;SDS011;24784;45.582;5.276;2023-03-23T09:08:30;16.85;;;8.88;;
39016;SDS011;24784;45.582;5.276;2023-03-23T09:11:00;9.57;;;6.53;;
39016;SDS011;24784;45.582;5.276;2023-03-23T09:13:28;7.93;;;5.30;;
39016;SDS011;24784;45.582;5.276;2023-03-23T09:15:54;9.32;;;5.40;;
39016;SDS011;24784;45.582;5.276;2023-03-23T09:18:20;11.38;;;5.78;;
39016;SDS011;24784;45.582;5.276;2023-03-23T09:20:46;10.52;;;7.57;;
39016;SDS011;24784;45.582;5.276;2023-03-23T09:23:15;8.52;;;6.57;;
39016;SDS011;24784;45.582;5.276;2023-03-23T09:25:41;13.52;;;8.45;;
39016;SDS011;24784;45.582;5.276;2023-03-23T09:28:08;14.48;;;8.32;;
39016;SDS011;24784;45.582;5.276;2023-03-23T09:30:35;11.88;;;7.50;;
39016;SDS011;24784;45.582;5.276;2023-03-23T09:33:05;14.80;;;9.80;;
39016;SDS011;24784;45.582;5.276;2023-03-23T09:35:33;13.65;;;7.65;;
39016;SDS011;24784;45.582;5.276;2023-03-23T09:38:00;14.70;;;7.57;;
39016;SDS011;24784;45.582;5.276;2023-03-23T09:40:45;15.98;;;7.57;;
39016;SDS011;24784;45.582;5.276;2023-03-23T09:43:19;16.85;;;8.50;;
39016;SDS011;24784;45.582;5.276;2023-03-23T09:46:13;11.95;;;8.52;;
39016;SDS011;24784;45.582;5.276;2023-03-23T09:54:11;14.88;;;8.65;;
39016;SDS011;24784;45.582;5.276;2023-03-23T09:56:48;20.30;;;10.38;;
39016;SDS011;24784;45.582;5.276;2023-03-23T10:01:56;14.90;;;8.98;;
39016;SDS011;24784;45.582;5.276;2023-03-23T10:05:03;18.20;;;8.53;;
39016;SDS011;24784;45.582;5.276;2023-03-23T10:07:21;12.75;;;7.88;;
39016;SDS011;24784;45.582;5.276;2023-03-23T10:09:54;15.13;;;8.23;;
39016;SDS011;24784;45.582;5.276;2023-03-23T10:13:06;15.25;;;8.63;;
39016;SDS011;24784;45.582;5.276;2023-03-23T10:15:17;14.27;;;9.50;;
39016;SDS011;24784;45.582;5.276;2023-03-23T10:20:42;13.82;;;8.63;;
39016;SDS011;24784;45.582;5.276;2023-03-23T10:25:48;13.60;;;7.75;;
39016;SDS011;24784;45.582;5.276;2023-03-23T10:30:59;11.57;;;8.05;;
39016;SDS011;24784;45.582;5.276;2023-03-23T10:33:43;12.27;;;7.40;;
39016;SDS011;24784;45.582;5.276;2023-03-23T10:36:22;11.38;;;7.57;;
39016;SDS011;24784;45.582;5.276;2023-03-23T10:39:20;12.77;;;6.85;;
39016;SDS011;24784;45.582;5.276;2023-03-23T10:41:46;9.82;;;6.90;;
39016;SDS011;24784;45.582;5.276;2023-03-23T10:44:16;8.32;;;6.63;;
39016;SDS011;24784;45.582;5.276;2023-03-23T10:46:48;11.60;;;5.80;;
39016;SDS011;24784;45.582;5.276;2023-03-23T10:50:10;14.20;;;6.53;;
39016;SDS011;24784;45.582;5.276;2023-03-23T10:52:30;13.35;;;6.10;;
39016;SDS011;24784;45.582;5.276;2023-03-23T10:55:05;14.82;;;6.18;;
39016;SDS011;24784;45.582;5.276;2023-03-23T10:57:39;13.18;;;6.95;;
39016;SDS011;24784;45.582;5.276;2023-03-23T11:00:15;8.90;;;6.63;;
39016;SDS011;24784;45.582;5.276;2023-03-23T11:02:45;12.35;;;6.70;;
39016;SDS011;24784;45.582;5.276;2023-03-23T11:05:20;12.52;;;7.38;;
39016;SDS011;24784;45.582;5.276;2023-03-23T11:07:57;12.48;;;7.80;;
39016;SDS011;24784;45.582;5.276;2023-03-23T11:10:36;13.07;;;7.20;;
39016;SDS011;24784;45.582;5.276;2023-03-23T11:13:09;19.25;;;8.88;;
39016;SDS011;24784;45.582;5.276;2023-03-23T11:15:41;14.23;;;8.93;;
39016;SDS011;24784;45.582;5.276;2023-03-23T11:18:12;13.85;;;8.18;;
39016;SDS011;24784;45.582;5.276;2023-03-23T11:20:50;11.93;;;8.15;;
39016;SDS011;24784;45.582;5.276;2023-03-23T11:26:21;12.15;;;8.40;;
39016;SDS011;24784;45.582;5.276;2023-03-23T11:31:22;14.13;;;9.02;;
39016;SDS011;24784;45.582;5.276;2023-03-23T11:33:53;12.02;;;8.60;;
39016;SDS011;24784;45.582;5.276;2023-03-23T11:36:36;16.40;;;9.45;;
39016;SDS011;24784;45.582;5.276;2023-03-23T11:41:51;12.25;;;7.78;;
39016;SDS011;24784;45.582;5.276;2023-03-23T11:44:20;10.73;;;7.60;;
39016;SDS011;24784;45.582;5.276;2023-03-23T11:49:20;23.30;;;12.90;;
39016;SDS011;24784;45.582;5.276;2023-03-23T11:51:52;16.80;;;10.27;;
39016;SDS011;24784;45.582;5.276;2023-03-23T11:54:43;11.38;;;8.32;;
39016;SDS011;24784;45.582;5.276;2023-03-23T11:57:13;17.33;;;9.32;;
39016;SDS011;24784;45.582;5.276;2023-03-23T11:59:40;13.88;;;8.13;;
39016;SDS011;24784;45.582;5.276;2023-03-23T12:08:11;10.77;;;7.90;;
39016;SDS011;24784;45.582;5.276;2023-03-23T12:14:09;9.68;;;7.97;;
39016;SDS011;24784;45.582;5.276;2023-03-23T12:16:35;17.23;;;7.75;;
39016;SDS011;24784;45.582;5.276;2023-03-23T12:19:20;11.30;;;7.07;;
39016;SDS011;24784;45.582;5.276;2023-03-23T12:27:38;14.40;;;8.38;;
39016;SDS011;24784;45.582;5.276;2023-03-23T12:49:37;12.13;;;8.43;;
39016;SDS011;24784;45.582;5.276;2023-03-23T12:54:45;13.88;;;8.70;;
39016;SDS011;24784;45.582;5.276;2023-03-23T12:57:38;17.20;;;10.40;;
39016;SDS011;24784;45.582;5.276;2023-03-23T13:02:54;13.15;;;8.98;;
39016;SDS011;24784;45.582;5.276;2023-03-23T13:05:45;14.07;;;10.45;;
39016;SDS011;24784;45.582;5.276;2023-03-23T13:08:25;17.38;;;10.57;;
39016;SDS011;24784;45.582;5.276;2023-03-23T13:11:23;15.43;;;9.35;;
39016;SDS011;24784;45.582;5.276;2023-03-23T13:13:58;25.20;;;11.15;;
39016;SDS011;24784;45.582;5.276;2023-03-23T13:24:16;17.05;;;9.40;;
39016;SDS011;24784;45.582;5.276;2023-03-23T13:26:45;14.98;;;10.57;;
39016;SDS011;24784;45.582;5.276;2023-03-23T13:29:21;14.07;;;9.85;;
39016;SDS011;24784;45.582;5.276;2023-03-23T13:31:52;17.77;;;10.43;;
39016;SDS011;24784;45.582;5.276;2023-03-23T13:34:36;26.77;;;10.48;;
39016;SDS011;24784;45.582;5.276;2023-03-23T13:37:05;20.80;;;13.15;;
39016;SDS011;24784;45.582;5.276;2023-03-23T13:39:37;19.58;;;12.07;;
39016;SDS011;24784;45.582;5.276;2023-03-23T13:47:25;17.77;;;10.85;;
39016;SDS011;24784;45.582;5.276;2023-03-23T13:52:22;15.57;;;9.98;;
39016;SDS011;24784;45.582;5.276;2023-03-23T13:54:48;15.85;;;9.95;;
39016;SDS011;24784;45.582;5.276;2023-03-23T13:57:32;15.50;;;9.73;;
39016;SDS011;24784;45.582;5.276;2023-03-23T14:00:10;15.63;;;9.27;;
39016;SDS011;24784;45.582;5.276;2023-03-23T14:02:58;14.80;;;10.38;;
39016;SDS011;24784;45.582;5.276;2023-03-23T14:05:34;13.82;;;9.00;;
39016;SDS011;24784;45.582;5.276;2023-03-23T14:16:21;16.77;;;9.57;;
39016;SDS011;24784;45.582;5.276;2023-03-23T14:18:56;14.07;;;9.95;;
39016;SDS011;24784;45.582;5.276;2023-03-23T14:21:33;16.92;;;9.65;;
39016;SDS011;24784;45.582;5.276;2023-03-23T14:24:09;12.02;;;9.43;;
39016;SDS011;24784;45.582;5.276;2023-03-23T14:26:44;17.77;;;9.35;;
39016;SDS011;24784;45.582;5.276;2023-03-23T14:29:12;14.73;;;8.50;;
39016;SDS011;24784;45.582;5.276;2023-03-23T14:31:38;13.00;;;9.18;;
39016;SDS011;24784;45.582;5.276;2023-03-23T14:34:15;14.82;;;8.48;;
39016;SDS011;24784;45.582;5.276;2023-03-23T14:36:43;15.93;;;9.75;;
39016;SDS011;24784;45.582;5.276;2023-03-23T14:41:41;14.77;;;9.60;;
39016;SDS011;24784;45.582;5.276;2023-03-23T14:44:10;16.27;;;9.25;;
39016;SDS011;24784;45.582;5.276;2023-03-23T14:46:43;15.32;;;9.50;;
39016;SDS011;24784;45.582;5.276;2023-03-23T14:49:11;12.85;;;9.43;;
39016;SDS011;24784;45.582;5.276;2023-03-23T14:51:51;21.30;;;12.65;;
39016;SDS011;24784;45.582;5.276;2023-03-23T14:54:25;17.10;;;10.35;;
39016;SDS011;24784;45.582;5.276;2023-03-23T14:56:53;16.52;;;10.02;;
39016;SDS011;24784;45.582;5.276;2023-03-23T14:59:19;19.27;;;10.25;;
39016;SDS011;24784;45.582;5.276;2023-03-23T15:01:46;14.75;;;9.73;;
39016;SDS011;24784;45.582;5.276;2023-03-23T15:04:16;12.38;;;8.40;;
39016;SDS011;24784;45.582;5.276;2023-03-23T15:06:50;16.98;;;9.00;;
39016;SDS011;24784;45.582;5.276;2023-03-23T15:09:23;15.05;;;8.95;;
39016;SDS011;24784;45.582;5.276;2023-03-23T15:11:55;12.68;;;7.82;;
39016;SDS011;24784;45.582;5.276;2023-03-23T15:14:27;12.80;;;8.27;;
39016;SDS011;24784;45.582;5.276;2023-03-23T15:17:00;14.77;;;7.82;;
39016;SDS011;24784;45.582;5.276;2023-03-23T15:21:53;13.15;;;8.57;;
39016;SDS011;24784;45.582;5.276;2023-03-23T15:24:38;14.05;;;8.20;;
39016;SDS011;24784;45.582;5.276;2023-03-23T15:29:45;13.30;;;7.53;;
39016;SDS011;24784;45.582;5.276;2023-03-23T15:32:19;16.95;;;7.75;;
39016;SDS011;24784;45.582;5.276;2023-03-23T15:34:49;11.82;;;7.53;;
39016;SDS011;24784;45.582;5.276;2023-03-23T15:37:19;11.02;;;7.93;;
39016;SDS011;24784;45.582;5.276;2023-03-23T15:39:53;14.98;;;7.38;;
39016;SDS011;24784;45.582;5.276;2023-03-23T15:42:31;13.85;;;7.55;;
39016;SDS011;24784;45.582;5.276;2023-03-23T15:50:16;12.27;;;8.38;;
39016;SDS011;24784;45.582;5.276;2023-03-23T15:52:42;12.07;;;8.00;;
39016;SDS011;24784;45.582;5.276;2023-03-23T15:55:18;12.52;;;7.93;;
39016;SDS011;24784;45.582;5.276;2023-03-23T15:57:55;13.23;;;7.97;;
39016;SDS011;24784;45.582;5.276;2023-03-23T16:00:22;18.70;;;9.45;;
39016;SDS011;24784;45.582;5.276;2023-03-23T16:02:53;11.10;;;7.68;;
39016;SDS011;24784;45.582;5.276;2023-03-23T16:05:21;10.68;;;8.23;;
39016;SDS011;24784;45.582;5.276;2023-03-23T16:07:48;14.43;;;8.65;;
39016;SDS011;24784;45.582;5.276;2023-03-23T16:10:18;18.35;;;9.48;;
39016;SDS011;24784;45.582;5.276;2023-03-23T16:12:46;11.98;;;7.55;;
39016;SDS011;24784;45.582;5.276;2023-03-23T16:15:12;11.65;;;7.80;;
39016;SDS011;24784;45.582;5.276;2023-03-23T16:17:39;10.48;;;7.03;;
39016;SDS011;24784;45.582;5.276;2023-03-23T16:20:10;10.82;;;7.38;;
39016;SDS011;24784;45.582;5.276;2023-03-23T16:22:38;14.45;;;8.13;;
39016;SDS011;24784;45.582;5.276;2023-03-23T16:25:04;15.20;;;7.07;;
39016;SDS011;24784;45.582;5.276;2023-03-23T16:27:31;12.32;;;7.47;;
39016;SDS011;24784;45.582;5.276;2023-03-23T16:29:57;12.20;;;6.65;;
39016;SDS011;24784;45.582;5.276;2023-03-23T16:32:24;10.48;;;7.15;;
39016;SDS011;24784;45.582;5.276;2023-03-23T16:34:51;12.27;;;7.93;;
39016;SDS011;24784;45.582;5.276;2023-03-23T16:37:17;14.05;;;8.25;;
39016;SDS011;24784;45.582;5.276;2023-03-23T16:39:42;13.27;;;8.38;;
39016;SDS011;24784;45.582;5.276;2023-03-23T16:42:08;15.40;;;7.53;;
39016;SDS011;24784;45.582;5.276;2023-03-23T16:44:34;15.48;;;8.23;;
39016;SDS011;24784;45.582;5.276;2023-03-23T16:47:00;12.43;;;7.40;;
39016;SDS011;24784;45.582;5.276;2023-03-23T16:49:26;18.10;;;8.10;;
39016;SDS011;24784;45.582;5.276;2023-03-23T16:51:51;13.15;;;8.25;;
39016;SDS011;24784;45.582;5.276;2023-03-23T16:54:17;16.08;;;7.57;;
39016;SDS011;24784;45.582;5.276;2023-03-23T16:56:43;13.23;;;7.57;;
39016;SDS011;24784;45.582;5.276;2023-03-23T16:59:11;9.32;;;7.05;;
39016;SDS011;24784;45.582;5.276;2023-03-23T17:01:37;12.50;;;7.75;;
39016;SDS011;24784;45.582;5.276;2023-03-23T17:04:03;11.27;;;7.72;;
39016;SDS011;24784;45.582;5.276;2023-03-23T17:06:29;12.85;;;7.00;;
39016;SDS011;24784;45.582;5.276;2023-03-23T17:08:55;16.30;;;7.78;;